WEATHER DATA

TODAY
Time Temp. Dewp. Hum. Wind dir Wind speed Wind gust Bar. 1h Prec. 24h Prec.
00:07 -3.3 -6.2 78 303 0.3 0.8 1021.8 0.0000 0.0000
00:16 -3.5 -6.3 79 270 0.3 0.8 1021.8 0.0000 0.0000
00:27 -3.6 -6.4 79 270 0.3 0.8 1022 0.0000 0.0000
00:37 -3.8 -6.4 80 270 0.3 0.8 1022 0.0000 0.0000
00:47 -4 -6.6 80 303 0.3 1.1 1021.8 0.0000 0.0000
00:56 -4 -6.6 80 270 0.3 0.8 1021.9 0.0000 0.0000
01:07 -3.9 -6.4 81 315 0.3 0.8 1022 0.0000 0.0000
01:17 -3.9 -6.4 81 270 0.3 0.8 1022.1 0.0000 0.0000
01:26 -4 -6.5 81 270 0.3 0.8 1022.1 0.0000 0.0000
01:37 -4.2 -6.8 80 306 0.3 0.8 1022 0.0000 0.0000
01:47 -4.2 -6.7 81 325 0.3 0.8 1022.1 0.0000 0.0000
01:57 -4.2 -6.7 81 270 0.3 1.1 1022 0.0000 0.0000
02:06 -4.4 -6.9 81 309 0.3 1.1 1022.2 0.0000 0.0000
02:17 -4.5 -7 81 302 0.3 1.1 1022.2 0.0000 0.0000
02:27 -4.5 -6.8 82 306 0.3 0.8 1022.2 0.0000 0.0000
02:37 -4.6 -6.9 82 270 0.3 1.1 1022.3 0.0000 0.0000
02:47 -4.7 -7.1 81 270 0.3 0.8 1022.3 0.0000 0.0000
02:57 -4.8 -7.1 82 270 0.3 0.8 1022.5 0.0000 0.0000
03:07 -5 -7.3 82 270 0.3 0.8 1022.6 0.0000 0.0000
03:17 -5.1 -7.4 82 270 0.3 1.1 1022.2 0.0000 0.0000
03:28 -5.3 -7.6 82 270 0.3 1.1 1022.5 0.0000 0.0000
03:37 -5.4 -7.6 83 270 0.3 1.1 1022.5 0.0000 0.0000
03:47 -5.5 -7.7 83 270 0.3 0.8 1022.5 0.0000 0.0000
03:58 -5.5 -7.7 83 270 0.3 1.1 1022.5 0.0000 0.0000
04:08 -5.5 -7.7 83 270 0.3 1.1 1022.3 0.0000 0.0000
04:17 -5.4 -7.4 84 270 0.3 0.8 1022.6 0.0000 0.0000
04:27 -5.4 -7.4 84 270 0.3 0.8 1022.8 0.0000 0.0000
04:38 -5.5 -7.5 84 303 0.3 0.8 1022.9 0.0000 0.0000
04:47 -5.5 -7.5 84 270 0.3 0.8 1023 0.0000 0.0000
04:57 -5.6 -7.6 84 270 0.3 0.8 1022.9 0.0000 0.0000
05:08 -5.7 -7.7 84 306 0.3 0.8 1023.1 0.0000 0.0000
05:18 -5.8 -7.8 84 270 0.3 0.8 1023.2 0.0000 0.0000
05:26 -5.8 -7.8 84 270 0.3 1.1 1023.1 0.0000 0.0000
05:37 -5.6 -7.5 85 270 0.3 0.8 1023.1 0.0000 0.0000
05:46 -5.7 -7.6 85 236 0.3 0.8 1023.2 0.0000 0.0000
05:56 -5.7 -7.6 85 270 0.3 0.8 1023 0.0000 0.0000
06:06 -5.6 -7.5 85 270 0.3 1.1 1023 0.0000 0.0000
06:17 -5.5 -7.4 85 270 0.3 1.1 1023.1 0.0000 0.0000
06:27 -5.4 -7.3 85 270 0.3 0.8 1023.1 0.0000 0.0000
06:37 -5.3 -7.2 85 270 0.3 0.8 1023.1 0.0000 0.0000
06:47 -5.3 -7.2 85 270 0.3 1.1 1023.1 0.0000 0.0000
06:57 -5.3 -7.2 85 315 0.3 1.1 1023.3 0.0000 0.0000
07:07 -5.3 -7.3 84 270 0.3 0.8 1023.1 0.0000 0.0000
07:17 -5.5 -7.5 84 306 0.3 0.8 1023.1 0.0000 0.0000
07:27 -5.6 -7.6 84 325 0.3 1.4 1023.3 0.0000 0.0000
07:37 -5.1 -6.9 86 349 0.3 1.4 1023.4 0.0000 0.0000
07:47 -4.4 -6.2 86 300 0.8 1.7 1023.4 0.0000 0.0000
07:58 -3.7 -5.5 86 270 0.3 1.4 1023.7 0.0000 0.0000
08:08 -3.4 -5.3 85 315 0.3 1.1 1023.7 0.0000 0.0000
08:17 -3.2 -5.3 84 270 0.3 1.1 1023.9 0.0000 0.0000
08:28 -3.4 -5.6 83 315 0.3 1.1 1023.9 0.0000 0.0000
08:38 -3.4 -5.6 83 3 0.3 1.1 1023.8 0.0000 0.0000
08:48 -3.3 -5.5 83 335 0.8 1.4 1023.9 0.0000 0.0000
08:58 -2.9 -5 84 356 0.3 1.7 1023.8 0.0000 0.0000
09:08 -2.6 -4.8 83 305 0.3 1.4 1023.8 0.0000 0.0000
09:18 -2.3 -4.5 83 270 0.3 1.4 1023.8 0.0000 0.0000
09:28 -1.9 -4.1 83 352 0.3 1.1 1023.7 0.0000 0.0000
09:38 -1.5 -3.9 82 321 0.3 1.1 1023.7 0.0000 0.0000
09:44 -1.3 -3.7 82 0 0.3 0.8 1023.7 0.0000 0.0000
09:53 -0.9 -3.3 82 357 0.3 1.1 1023.7 0.0000 0.0000
10:03 -0.2 -2.6 82 315 0.3 1.1 1023.8 0.0000 0.0000
10:14 2.6 -0.4 80 341 0.3 0.8 1023.9 0.0000 0.0000
10:24 4.1 0.1 75 315 0.3 0.8 1023.9 0.0000 0.0000
10:34 4.8 0.2 72 270 0.3 1.1 1023.9 0.0000 0.0000
10:44 4.9 0.1 71 326 0.3 1.1 1023.9 0.0000 0.0000
10:55 5.6 0.4 69 341 0.3 0.8 1023.7 0.0000 0.0000
11:04 6.2 0.9 69 270 0.3 0.8 1023.8 0.0000 0.0000
11:14 7 1.7 69 270 0.3 0.8 1023.7 0.0000 0.0000
11:24 7.9 2.4 68 270 0.3 0.8 1023.8 0.0000 0.0000
11:35 8.6 2.6 66 198 0.3 0.8 1023.8 0.0000 0.0000
11:53 10 3.3 63 135 0.3 0.8 1023.7 0.0000 0.0000
12:03 10.4 3.2 61 225 0.3 0.8 1023.3 0.0000 0.0000
12:12 10.7 3.7 62 6 0.3 0.8 1023.4 0.0000 0.0000
12:23 11.2 4 61 270 0.3 0.8 1023.2 0.0000 0.0000
12:33 11.5 3.8 59 333 0.3 0.8 1023.1 0.0000 0.0000
12:43 11.9 4.2 59 354 0.3 0.8 1023.2 0.0000 0.0000
12:52 12.2 4.4 59 270 0.3 1.1 1023 0.0000 0.0000
13:03 12.2 3.9 57 0 0.3 0.8 1022.9 0.0000 0.0000
13:13 11.8 3.3 56 217 0.3 0.8 1022.9 0.0000 0.0000
13:23 11.3 3.1 57 234 0.3 1.1 1022.8 0.0000 0.0000
13:33 10.9 3.2 59 354 0.3 1.1 1022.6 0.0000 0.0000
13:43 11.3 3.3 58 341 0.3 1.1 1022.8 0.0000 0.0000
13:53 11.9 3.7 57 337 0.8 2.5 1022.6 0.0000 0.0000
14:13 11.7 2.4 53 0 0.8 1.7 1022.5 0.0000 0.0000
14:23 11.6 2.6 54 354 1.1 2.2 1022.6 0.0000 0.0000
14:33 11.6 2.4 53 353 1.1 3.1 1022.5 0.0000 0.0000
14:43 11.2 2.5 55 333 0.3 1.4 1022.6 0.0000 0.0000
14:53 10.7 2.3 56 29 0.3 1.1 1022.6 0.0000 0.0000
15:03 10.4 2.3 57 341 0.3 1.1 1022.7 0.0000 0.0000
15:13 9.9 2 58 14 0.3 1.1 1022.6 0.0000 0.0000
15:24 9.3 1.7 59 26 0.3 0.8 1022.3 0.0000 0.0000
15:33 8.7 1.6 61 315 0.3 0.8 1022.3 0.0000 0.0000
15:43 8 1.2 62 354 0.3 1.1 1022.3 0.0000 0.0000
15:54 7.3 0.9 64 336 0.3 0.8 1022.2 0.0000 0.0000
16:04 6.9 0.8 65 4 0.3 1.4 1022.2 0.0000 0.0000
16:13 6.5 0.6 66 4 0.3 0.8 1022.3 0.0000 0.0000
16:23 6 0.3 67 18 0.3 0.8 1022.5 0.0000 0.0000
16:43 5.5 0.1 68 15 0.3 1.1 1022.5 0.0000 0.0000
16:53 5.4 0.2 69 354 0.3 1.1 1022.6 0.0000 0.0000
17:14 4.8 -0.2 70 14 0.3 0.8 1022.7 0.0000 0.0000

DAY STATISTIC

2019-02-19
TEMPERATURE
AVERAGE
0.8
HIGH
12.2
12:52
LOW
-5.8
05:18
PRESSURE
AVERAGE
1022.9
HIGH
1023.9
08:17
LOW
1021.8
00:07
DEWPOINT
AVERAGE
-3.2
HIGH
4.4
12:52
LOW
-7.8
05:18
HUMIDITY
AVERAGE
75
HIGH
86
07:37
LOW
53
14:13
WIND SPEED
AVERAGE
0.3
HIGH
1.1
14:23
WIND GUST
AVERAGE
1.0
HIGH
3.1
14:33
WIND DIRECTION
PREVAILING
W
40%
N
25.0
NE
2.0
E
0.0
SE
1.0
S
1.0
SW
4.0
W
40.0
NW
27.0
PRECIPITATION
RAIN HOUR
0.0
RAIN DAY
0.0
TEMPERATURE (°C)
LOW
-5.8
HIGH
12.2
AVERAGE
0.8
PRESSURE (hpa)
LOW
1021.8
HIGH
1023.9
AVERAGE
1022.9
DEVICE